createdAt,value
2018-12-07T00:00:08.224Z,89.40
2018-12-07T00:01:05.181Z,89.40
2018-12-07T00:02:07.798Z,89.40
2018-12-07T00:03:08.378Z,89.30
2018-12-07T00:04:07.922Z,89.40
2018-12-07T00:05:08.442Z,89.40
2018-12-07T00:06:07.958Z,89.30
2018-12-07T00:07:05.954Z,89.30
2018-12-07T00:08:10.105Z,89.30
2018-12-07T00:09:07.563Z,89.30
2018-12-07T00:10:05.538Z,89.40
2018-12-07T00:11:05.618Z,89.40
2018-12-07T00:12:05.721Z,89.40
2018-12-07T00:13:05.808Z,89.40
2018-12-07T00:14:08.500Z,89.40
2018-12-07T00:15:08.077Z,89.40
2018-12-07T00:16:07.596Z,89.40
2018-12-07T00:17:05.620Z,89.40
2018-12-07T00:18:10.945Z,89.40
2018-12-07T00:19:05.961Z,89.40
2018-12-07T00:20:05.066Z,89.60
2018-12-07T00:21:08.587Z,89.70
2018-12-07T00:22:05.584Z,89.70
2018-12-07T00:23:08.205Z,89.70
2018-12-07T00:24:05.391Z,89.70
2018-12-07T00:25:05.543Z,89.70
2018-12-07T00:26:05.657Z,89.70
2018-12-07T00:27:05.695Z,90.00
2018-12-07T00:28:05.949Z,90.00
2018-12-07T00:29:05.254Z,89.80
2018-12-07T00:30:05.477Z,89.70
2018-12-07T00:31:05.581Z,89.70
2018-12-07T00:32:08.305Z,89.70
2018-12-07T00:33:05.231Z,89.70
2018-12-07T00:34:05.364Z,89.60
2018-12-07T00:35:05.426Z,89.60
2018-12-07T00:36:08.014Z,89.60
2018-12-07T00:37:05.977Z,89.40
2018-12-07T00:38:07.687Z,89.40
2018-12-07T00:39:05.743Z,89.40
2018-12-07T00:40:05.866Z,89.30
2018-12-07T00:41:08.516Z,89.40
2018-12-07T00:42:05.434Z,89.30
2018-12-07T00:43:05.576Z,89.30
2018-12-07T00:44:05.596Z,89.30
2018-12-07T00:45:05.257Z,89.30
2018-12-07T00:46:05.581Z,89.30
2018-12-07T00:47:05.685Z,89.60
2018-12-07T00:48:05.857Z,89.30
2018-12-07T00:49:08.560Z,89.20
2018-12-07T00:50:05.476Z,89.20
2018-12-07T00:51:10.603Z,89.10
2018-12-07T00:52:05.668Z,89.30
2018-12-07T00:53:05.810Z,89.20
2018-12-07T00:54:05.888Z,89.20
2018-12-07T00:55:05.988Z,89.20
2018-12-07T00:56:05.069Z,89.30
2018-12-07T00:57:07.627Z,89.20
2018-12-07T00:58:05.617Z,89.20
2018-12-07T00:59:08.473Z,89.20
2018-12-07T01:00:07.921Z,89.20
2018-12-07T01:01:08.522Z,89.20
2018-12-07T01:02:05.408Z,89.10
2018-12-07T01:03:08.158Z,89.10
2018-12-07T01:04:07.699Z,89.00
2018-12-07T01:05:05.643Z,89.20
2018-12-07T01:06:05.721Z,89.00
2018-12-07T01:07:05.905Z,89.20
2018-12-07T01:08:05.201Z,88.90
2018-12-07T01:09:08.137Z,89.00
2018-12-07T01:10:05.002Z,89.30
2018-12-07T01:11:05.121Z,89.00
2018-12-07T01:12:16.104Z,89.10
2018-12-07T01:13:05.003Z,89.10
2018-12-07T01:14:05.115Z,88.90
2018-12-07T01:15:07.706Z,88.90
2018-12-07T01:16:05.835Z,88.90
2018-12-07T01:17:08.668Z,88.90
2018-12-07T01:18:08.297Z,89.10
2018-12-07T01:19:07.832Z,89.00
2018-12-07T01:20:08.310Z,89.10
2018-12-07T01:21:05.297Z,89.10
2018-12-07T01:22:05.441Z,89.10
2018-12-07T01:23:05.617Z,89.10
2018-12-07T01:24:08.377Z,89.20
2018-12-07T01:25:05.229Z,89.10
2018-12-07T01:26:05.226Z,88.90
2018-12-07T01:27:05.431Z,88.90
2018-12-07T01:28:05.474Z,88.90
2018-12-07T01:29:05.852Z,89.00
2018-12-07T01:30:05.894Z,89.30
2018-12-07T01:31:06.057Z,89.40
2018-12-07T01:32:05.168Z,89.30
2018-12-07T01:33:07.886Z,89.30
2018-12-07T01:34:06.043Z,89.30
2018-12-07T01:35:07.833Z,89.30
2018-12-07T01:36:05.924Z,89.30
2018-12-07T01:37:05.125Z,89.30
2018-12-07T01:38:05.259Z,89.30
2018-12-07T01:39:05.461Z,89.30
2018-12-07T01:40:05.564Z,89.40
2018-12-07T01:41:05.799Z,89.30
2018-12-07T01:42:08.433Z,89.40
2018-12-07T01:43:07.888Z,89.40
2018-12-07T01:44:05.897Z,89.30
2018-12-07T01:45:08.519Z,89.30
2018-12-07T01:46:05.458Z,89.30
2018-12-07T01:47:08.128Z,89.30
2018-12-07T01:48:05.187Z,89.30
2018-12-07T01:49:05.372Z,89.30
2018-12-07T01:50:05.446Z,89.30
2018-12-07T01:51:05.438Z,89.30
2018-12-07T01:52:08.107Z,89.30
2018-12-07T01:53:05.068Z,89.30
2018-12-07T01:54:05.232Z,89.30
2018-12-07T01:55:08.152Z,89.20
2018-12-07T01:56:05.149Z,89.20
2018-12-07T01:57:05.254Z,89.30
2018-12-07T01:58:05.310Z,89.20
2018-12-07T01:59:05.551Z,89.10
2018-12-07T02:00:08.217Z,89.20
2018-12-07T02:01:05.281Z,89.10
2018-12-07T02:02:05.378Z,89.10
2018-12-07T02:03:05.511Z,89.00
2018-12-07T02:04:08.171Z,89.20
2018-12-07T02:05:07.786Z,89.10
2018-12-07T02:06:05.797Z,89.10
2018-12-07T02:07:08.460Z,89.10
2018-12-07T02:08:07.971Z,89.10
2018-12-07T02:09:06.067Z,89.10
2018-12-07T02:10:07.817Z,89.10
2018-12-07T02:11:08.304Z,89.10
2018-12-07T02:12:05.365Z,89.10
2018-12-07T02:13:10.698Z,88.90
2018-12-07T02:14:08.296Z,88.90
2018-12-07T02:15:05.279Z,88.90
2018-12-07T02:16:08.010Z,88.90
2018-12-07T02:17:08.499Z,89.00
2018-12-07T02:18:05.575Z,89.00
2018-12-07T02:19:05.862Z,88.80
2018-12-07T02:20:05.071Z,88.80
2018-12-07T02:21:05.190Z,88.90
2018-12-07T02:22:07.753Z,88.80
2018-12-07T02:23:05.639Z,88.80
2018-12-07T02:24:08.230Z,88.70
2018-12-07T02:25:07.692Z,88.80
2018-12-07T02:26:05.723Z,88.80
2018-12-07T02:27:05.912Z,88.80
2018-12-07T02:28:05.015Z,88.80
2018-12-07T02:29:05.629Z,88.90
2018-12-07T02:30:05.707Z,88.80
2018-12-07T02:31:05.737Z,88.90
2018-12-07T02:32:08.401Z,88.90
2018-12-07T02:33:05.588Z,88.80
2018-12-07T02:34:05.672Z,88.80
2018-12-07T02:35:13.436Z,88.90
2018-12-07T02:36:07.977Z,88.90
2018-12-07T02:37:08.712Z,88.90
2018-12-07T02:38:05.665Z,89.00
2018-12-07T02:39:10.868Z,88.90
2018-12-07T02:40:08.356Z,88.90
2018-12-07T02:41:05.237Z,88.80
2018-12-07T02:42:07.823Z,88.80
2018-12-07T02:43:05.739Z,88.80
2018-12-07T02:44:05.810Z,89.00
2018-12-07T02:45:08.407Z,88.90
2018-12-07T02:46:05.346Z,88.90
2018-12-07T02:47:05.423Z,88.90
2018-12-07T02:48:05.581Z,88.80
2018-12-07T02:49:05.061Z,88.90
2018-12-07T02:50:05.146Z,88.90
2018-12-07T02:51:05.209Z,88.90
2018-12-07T02:52:07.850Z,88.90
2018-12-07T02:53:05.816Z,88.90
2018-12-07T02:54:08.384Z,88.90
2018-12-07T02:55:07.974Z,88.90
2018-12-07T02:56:08.461Z,88.90
2018-12-07T02:57:05.588Z,88.90
2018-12-07T02:58:08.267Z,88.90
2018-12-07T02:59:05.228Z,88.90
2018-12-07T03:00:13.006Z,88.70
2018-12-07T03:01:08.645Z,88.70
2018-12-07T03:02:08.126Z,88.70
2018-12-07T03:03:07.633Z,88.80
2018-12-07T03:04:05.560Z,88.80
2018-12-07T03:05:08.315Z,88.70
2018-12-07T03:07:08.488Z,88.70
2018-12-07T03:08:05.530Z,88.80
2018-12-07T03:09:08.231Z,88.60
2018-12-07T03:10:07.786Z,88.50
2018-12-07T03:11:08.354Z,88.60
2018-12-07T03:12:05.372Z,88.60
2018-12-07T03:13:07.990Z,88.60
2018-12-07T03:14:07.662Z,88.60
2018-12-07T03:15:05.625Z,88.60
2018-12-07T03:16:05.647Z,88.60
2018-12-07T03:17:05.786Z,88.50
2018-12-07T03:18:06.022Z,88.60
2018-12-07T03:19:05.290Z,88.60
2018-12-07T03:20:05.463Z,88.70
2018-12-07T03:21:10.689Z,88.80
2018-12-07T03:22:05.595Z,88.80
2018-12-07T03:23:08.198Z,88.60
2018-12-07T03:24:10.175Z,88.60
2018-12-07T03:25:07.796Z,88.60
2018-12-07T03:26:05.782Z,88.60
2018-12-07T03:27:08.363Z,88.50
2018-12-07T03:28:05.418Z,88.60
2018-12-07T03:29:05.888Z,88.70
2018-12-07T03:30:05.099Z,88.70
2018-12-07T03:31:07.743Z,88.70
2018-12-07T03:32:05.733Z,88.80
2018-12-07T03:33:05.825Z,88.70
2018-12-07T03:34:05.970Z,88.60
2018-12-07T03:35:05.308Z,88.60
2018-12-07T03:36:05.441Z,88.60
2018-12-07T03:37:08.151Z,88.60
2018-12-07T03:38:05.121Z,88.60
2018-12-07T03:39:05.263Z,88.60
2018-12-07T03:40:05.399Z,88.60
2018-12-07T03:41:08.045Z,88.50
2018-12-07T03:42:05.033Z,88.50
2018-12-07T03:43:05.156Z,88.50
2018-12-07T03:44:05.220Z,88.50
2018-12-07T03:45:07.791Z,88.50
2018-12-07T03:46:08.410Z,88.50
2018-12-07T03:47:05.469Z,88.50
2018-12-07T03:48:05.599Z,88.60
2018-12-07T03:49:07.573Z,88.50
2018-12-07T03:50:05.561Z,88.50
2018-12-07T03:51:08.386Z,88.50
2018-12-07T03:52:05.398Z,88.40
2018-12-07T03:53:05.512Z,88.50
2018-12-07T03:54:05.683Z,88.50
2018-12-07T03:55:08.418Z,88.40
2018-12-07T03:56:05.463Z,88.40
2018-12-07T03:57:05.580Z,88.40
2018-12-07T03:58:05.621Z,88.40
2018-12-07T03:59:10.923Z,88.40
2018-12-07T04:00:08.455Z,88.40
2018-12-07T04:01:07.902Z,88.40
2018-12-07T04:02:05.989Z,88.40
2018-12-07T04:03:05.178Z,88.50
2018-12-07T04:04:05.242Z,88.50
2018-12-07T04:05:10.339Z,88.40
2018-12-07T04:06:05.311Z,88.40
2018-12-07T04:07:07.877Z,88.30
2018-12-07T04:08:05.963Z,88.30
2018-12-07T04:09:05.105Z,88.30
2018-12-07T04:10:05.462Z,88.30
2018-12-07T04:11:05.592Z,88.30
2018-12-07T04:12:08.306Z,88.20
2018-12-07T04:13:07.825Z,88.20
2018-12-07T04:14:08.493Z,88.10
2018-12-07T04:15:05.482Z,88.10
2018-12-07T04:16:10.618Z,88.10
2018-12-07T04:17:08.041Z,88.10
2018-12-07T04:18:05.010Z,88.10
2018-12-07T04:19:05.325Z,88.10
2018-12-07T04:20:05.495Z,88.10
2018-12-07T04:21:18.206Z,88.10
2018-12-07T04:22:05.152Z,88.10
2018-12-07T04:23:07.719Z,88.00
2018-12-07T04:24:08.136Z,88.10
2018-12-07T04:25:07.596Z,88.10
2018-12-07T04:26:05.559Z,88.00
2018-12-07T04:27:05.600Z,88.10
2018-12-07T04:28:05.626Z,88.10
2018-12-07T04:29:05.923Z,88.10
2018-12-07T04:30:07.526Z,88.10
2018-12-07T04:31:05.492Z,88.10
2018-12-07T04:32:05.571Z,88.10
2018-12-07T04:33:08.260Z,88.10
2018-12-07T04:34:10.265Z,88.10
2018-12-07T04:35:05.221Z,88.10
2018-12-07T04:36:08.128Z,88.00
2018-12-07T04:37:10.303Z,88.10
2018-12-07T04:38:05.629Z,88.10
2018-12-07T04:39:05.717Z,88.00
2018-12-07T04:40:05.814Z,88.00
2018-12-07T04:41:05.214Z,88.00
2018-12-07T04:42:05.267Z,88.00
2018-12-07T04:43:05.391Z,87.90
2018-12-07T04:44:05.562Z,88.10
2018-12-07T04:45:05.741Z,87.90
2018-12-07T04:46:05.916Z,87.80
2018-12-07T04:47:05.279Z,87.90
2018-12-07T04:48:05.401Z,87.70
2018-12-07T04:49:05.503Z,87.90
2018-12-07T04:50:08.162Z,87.80
2018-12-07T04:51:07.703Z,87.70
2018-12-07T04:52:05.724Z,87.80
2018-12-07T04:53:05.930Z,87.80
2018-12-07T04:54:05.141Z,87.80
2018-12-07T04:55:07.854Z,87.70
2018-12-07T04:56:08.360Z,87.60
2018-12-07T04:57:05.286Z,87.60
2018-12-07T04:58:05.455Z,87.60
2018-12-07T04:59:08.095Z,87.60
2018-12-07T05:00:07.614Z,87.60
2018-12-07T05:01:05.743Z,87.60
2018-12-07T05:02:05.948Z,87.50
2018-12-07T05:03:07.690Z,87.40
2018-12-07T05:04:05.746Z,87.40
2018-12-07T05:05:08.281Z,87.40
2018-12-07T05:06:07.773Z,87.40
2018-12-07T05:07:08.286Z,87.40
2018-12-07T05:08:07.714Z,87.40
2018-12-07T05:09:08.180Z,87.40
2018-12-07T05:10:05.137Z,87.40
2018-12-07T05:11:05.205Z,87.40
2018-12-07T05:12:05.568Z,87.60
2018-12-07T05:13:05.712Z,87.80
2018-12-07T05:14:05.786Z,87.60
2018-12-07T05:15:05.786Z,87.40
2018-12-07T05:16:05.922Z,87.40
2018-12-07T05:17:05.112Z,87.30
2018-12-07T05:18:05.218Z,87.30
2018-12-07T05:19:07.787Z,87.40
2018-12-07T05:20:05.708Z,87.40
2018-12-07T05:21:05.981Z,87.50
2018-12-07T05:22:07.718Z,87.30
2018-12-07T05:23:05.688Z,87.30
2018-12-07T05:24:05.845Z,87.30
2018-12-07T05:25:06.413Z,87.20
2018-12-07T05:26:05.510Z,87.20
2018-12-07T05:27:08.086Z,87.40
2018-12-07T05:28:05.160Z,87.40
2018-12-07T05:29:05.632Z,87.40
2018-12-07T05:30:05.806Z,87.30
2018-12-07T05:31:08.675Z,87.40
2018-12-07T05:32:08.140Z,87.40
2018-12-07T05:33:05.145Z,87.40
2018-12-07T05:34:07.843Z,87.50
2018-12-07T05:35:08.380Z,87.50
2018-12-07T05:36:05.350Z,87.40
2018-12-07T05:37:05.560Z,87.40
2018-12-07T05:38:05.710Z,87.50
2018-12-07T05:39:05.246Z,87.60
2018-12-07T05:40:05.369Z,87.60
2018-12-07T05:41:05.479Z,87.60
2018-12-07T05:42:05.641Z,87.60
2018-12-07T05:43:05.770Z,87.60
2018-12-07T05:44:05.857Z,87.60
2018-12-07T05:45:06.023Z,87.60
2018-12-07T05:46:05.094Z,87.60
2018-12-07T05:47:07.819Z,87.50
2018-12-07T05:48:05.780Z,87.50
2018-12-07T05:49:05.471Z,87.70
2018-12-07T05:50:05.572Z,87.70
2018-12-07T05:51:05.809Z,87.80
2018-12-07T05:52:05.970Z,87.70
2018-12-07T05:53:05.159Z,87.90
2018-12-07T05:54:07.769Z,87.70
2018-12-07T05:55:08.464Z,87.90
2018-12-07T05:56:05.600Z,87.90
2018-12-07T05:57:08.323Z,87.90
2018-12-07T05:58:07.895Z,87.90
2018-12-07T05:59:05.874Z,87.90
2018-12-07T06:00:07.707Z,87.80
2018-12-07T06:01:08.174Z,87.90
2018-12-07T06:02:07.741Z,87.90
2018-12-07T06:03:08.319Z,87.90
2018-12-07T06:04:05.418Z,87.90
2018-12-07T06:07:06.179Z,87.90
2018-12-07T06:08:05.565Z,87.90
2018-12-07T06:09:05.900Z,87.90
2018-12-07T06:10:05.046Z,88.00
2018-12-07T06:11:05.171Z,88.00
2018-12-07T06:12:05.230Z,88.00
2018-12-07T06:13:07.865Z,88.10
2018-12-07T06:14:05.976Z,88.10
2018-12-07T06:15:07.802Z,88.10
2018-12-07T06:16:05.781Z,88.10
2018-12-07T06:17:08.569Z,88.10
2018-12-07T06:18:05.748Z,88.10
2018-12-07T06:19:05.856Z,88.10
2018-12-07T06:20:08.451Z,88.10
2018-12-07T06:21:05.375Z,88.20
2018-12-07T06:22:08.259Z,88.10
2018-12-07T06:23:05.278Z,88.10
2018-12-07T06:24:05.349Z,88.10
2018-12-07T06:25:05.621Z,88.00
2018-12-07T06:26:08.268Z,88.10
2018-12-07T06:27:05.250Z,88.10
2018-12-07T06:28:08.004Z,88.10
2018-12-07T06:29:08.403Z,87.90
2018-12-07T06:30:05.401Z,87.90
2018-12-07T06:31:08.048Z,87.90
2018-12-07T06:32:07.597Z,88.00
2018-12-07T06:33:05.557Z,87.90
2018-12-07T06:34:08.332Z,87.90
2018-12-07T06:35:05.327Z,87.90
2018-12-07T06:36:05.434Z,87.90
2018-12-07T06:37:05.675Z,87.90
2018-12-07T06:38:05.835Z,88.00
2018-12-07T06:39:05.974Z,88.10
2018-12-07T06:40:05.100Z,88.00
2018-12-07T06:41:07.732Z,88.10
2018-12-07T06:42:05.696Z,88.10
2018-12-07T06:43:05.811Z,88.00
2018-12-07T06:44:08.481Z,88.00
2018-12-07T06:45:07.965Z,87.90
2018-12-07T06:46:05.925Z,88.00
2018-12-07T06:47:05.022Z,88.10
2018-12-07T06:48:05.064Z,87.90
2018-12-07T06:49:05.563Z,87.90
2018-12-07T06:50:08.169Z,87.90
2018-12-07T06:51:10.176Z,87.90
2018-12-07T06:52:05.378Z,87.90
2018-12-07T06:53:05.689Z,87.90
2018-12-07T06:54:05.906Z,87.90
2018-12-07T06:55:07.575Z,88.00
2018-12-07T06:56:08.100Z,88.20
2018-12-07T06:57:07.645Z,88.00
2018-12-07T06:58:08.150Z,88.00
2018-12-07T06:59:05.268Z,87.90
2018-12-07T07:00:05.357Z,88.10
2018-12-07T07:01:07.966Z,87.90
2018-12-07T07:02:05.959Z,88.00
2018-12-07T07:03:05.249Z,87.90
2018-12-07T07:04:05.488Z,87.90
2018-12-07T07:05:05.757Z,88.00
2018-12-07T07:06:08.424Z,88.00
2018-12-07T07:07:05.729Z,88.00
2018-12-07T07:08:10.924Z,87.90
2018-12-07T07:09:08.395Z,88.00
2018-12-07T07:10:05.334Z,88.00
2018-12-07T07:11:05.461Z,88.00
2018-12-07T07:12:05.607Z,87.90
2018-12-07T07:13:05.635Z,87.90
2018-12-07T07:14:10.852Z,87.90
2018-12-07T07:15:08.480Z,87.90
2018-12-07T07:16:08.091Z,87.90
2018-12-07T07:17:10.116Z,87.90
2018-12-07T07:18:05.090Z,87.90
2018-12-07T07:19:05.351Z,88.00
2018-12-07T07:20:08.039Z,87.90
2018-12-07T07:21:05.086Z,88.00
2018-12-07T07:22:05.195Z,88.00
2018-12-07T07:23:05.269Z,88.00
2018-12-07T07:24:05.382Z,88.00
2018-12-07T07:25:05.535Z,88.10
2018-12-07T07:26:08.257Z,88.20
2018-12-07T07:27:05.226Z,88.20
2018-12-07T07:28:13.001Z,88.20
2018-12-07T07:29:05.192Z,88.20
2018-12-07T07:30:05.343Z,88.10
2018-12-07T07:31:05.452Z,88.20
2018-12-07T07:32:05.601Z,88.20
2018-12-07T07:33:08.323Z,88.30
2018-12-07T07:34:07.911Z,88.20
2018-12-07T07:35:08.399Z,88.20
2018-12-07T07:36:05.307Z,88.30
2018-12-07T07:37:05.335Z,88.20
2018-12-07T07:38:07.865Z,88.30
2018-12-07T07:39:05.893Z,88.50
2018-12-07T07:40:08.515Z,88.80
2018-12-07T07:41:08.039Z,88.60
2018-12-07T07:42:07.590Z,88.80
2018-12-07T07:43:10.543Z,88.80
2018-12-07T07:44:05.582Z,88.80
2018-12-07T07:45:08.190Z,88.80
2018-12-07T07:46:05.227Z,88.80
2018-12-07T07:47:08.079Z,88.80
2018-12-07T07:48:05.125Z,88.80
2018-12-07T07:49:07.818Z,88.90
2018-12-07T07:50:08.288Z,88.90
2018-12-07T07:51:05.223Z,88.90
2018-12-07T07:52:07.959Z,89.00
2018-12-07T07:53:05.933Z,88.90
2018-12-07T07:54:07.498Z,89.10
2018-12-07T07:55:07.965Z,89.00
2018-12-07T07:56:16.151Z,89.10
2018-12-07T07:57:05.050Z,89.10
2018-12-07T07:58:05.190Z,89.10
2018-12-07T07:59:07.849Z,89.00
2018-12-07T08:00:08.340Z,88.90
2018-12-07T08:01:07.957Z,89.00
2018-12-07T08:02:05.997Z,89.00
2018-12-07T08:03:05.111Z,89.10
2018-12-07T08:04:07.683Z,89.10
2018-12-07T08:05:05.809Z,89.10
2018-12-07T08:06:05.044Z,89.10
2018-12-07T08:07:05.147Z,89.10
2018-12-07T08:08:05.203Z,89.10
2018-12-07T08:09:05.261Z,89.30
2018-12-07T08:10:10.439Z,89.40
2018-12-07T08:11:05.401Z,89.30
2018-12-07T08:12:08.070Z,89.30
2018-12-07T08:13:05.062Z,89.30
2018-12-07T08:14:10.322Z,89.40
2018-12-07T08:15:07.895Z,89.20
2018-12-07T08:16:08.507Z,89.20
2018-12-07T08:17:05.640Z,89.30
2018-12-07T08:18:05.751Z,89.30
2018-12-07T08:19:08.609Z,89.40
2018-12-07T08:20:05.661Z,89.40
2018-12-07T08:21:05.743Z,89.40
2018-12-07T08:22:05.924Z,89.60
2018-12-07T08:23:05.010Z,89.40
2018-12-07T08:24:05.083Z,89.60
2018-12-07T08:25:05.164Z,89.60
2018-12-07T08:26:05.157Z,89.50
2018-12-07T08:27:07.733Z,89.70
2018-12-07T08:28:05.728Z,89.70
2018-12-07T08:29:08.317Z,89.70
2018-12-07T08:30:12.885Z,89.60
2018-12-07T08:31:08.381Z,89.70
2018-12-07T08:32:05.287Z,89.60
2018-12-07T08:33:05.392Z,89.50
2018-12-07T08:34:08.114Z,89.70
2018-12-07T08:35:07.726Z,89.50
2018-12-07T08:36:05.685Z,89.60
2018-12-07T08:37:08.367Z,89.40
2018-12-07T08:38:05.335Z,89.30
2018-12-07T08:39:05.356Z,89.20
2018-12-07T08:40:08.349Z,89.20
2018-12-07T08:41:05.373Z,89.20
2018-12-07T08:42:07.341Z,89.40
2018-12-07T08:43:05.623Z,89.30
2018-12-07T08:44:05.829Z,89.30
2018-12-07T08:45:06.002Z,89.30
2018-12-07T08:46:07.566Z,89.30
2018-12-07T08:47:05.444Z,89.30
2018-12-07T08:48:08.034Z,89.20
2018-12-07T08:49:05.948Z,89.20
2018-12-07T08:50:05.057Z,89.10
2018-12-07T08:51:05.310Z,89.10
2018-12-07T08:53:05.773Z,89.10
2018-12-07T08:54:08.554Z,89.10
2018-12-07T08:55:05.487Z,89.10
2018-12-07T08:56:08.044Z,89.00
2018-12-07T08:57:05.051Z,89.10
2018-12-07T08:58:07.671Z,89.10
2018-12-07T08:59:05.545Z,89.10
2018-12-07T09:00:08.203Z,89.10
2018-12-07T09:01:05.159Z,89.10
2018-12-07T09:02:07.725Z,89.00
2018-12-07T09:03:05.736Z,89.00
2018-12-07T09:04:08.416Z,89.00
2018-12-07T09:05:05.395Z,89.00
2018-12-07T09:06:08.040Z,88.90
2018-12-07T09:07:08.624Z,89.10
2018-12-07T09:08:16.251Z,88.90
2018-12-07T09:09:12.771Z,88.90
2018-12-07T09:10:05.638Z,88.90
2018-12-07T09:11:08.296Z,88.90
2018-12-07T09:12:05.253Z,88.90
2018-12-07T09:13:05.330Z,89.00
2018-12-07T09:14:05.410Z,89.00
2018-12-07T09:15:05.602Z,89.00
2018-12-07T09:16:05.745Z,89.10
2018-12-07T09:17:08.407Z,89.00
2018-12-07T09:18:05.418Z,89.00
2018-12-07T09:19:08.015Z,89.00
2018-12-07T09:20:08.575Z,88.90
2018-12-07T09:21:05.527Z,88.90
2018-12-07T09:22:08.230Z,88.80
2018-12-07T09:23:07.776Z,88.90
2018-12-07T09:24:05.682Z,88.90
2018-12-07T09:25:08.204Z,88.90
2018-12-07T09:26:07.705Z,88.90
2018-12-07T09:27:05.685Z,88.90
2018-12-07T09:28:05.764Z,88.90
2018-12-07T09:29:07.791Z,89.00
2018-12-07T09:30:05.656Z,89.00
2018-12-07T09:31:05.894Z,88.90
2018-12-07T09:32:07.533Z,88.80
2018-12-07T09:33:08.053Z,88.80
2018-12-07T09:34:06.067Z,88.80
2018-12-07T09:35:05.290Z,88.80
2018-12-07T09:36:08.062Z,88.70
2018-12-07T09:37:07.634Z,88.70
2018-12-07T09:38:12.916Z,88.70
2018-12-07T09:39:05.190Z,88.60
2018-12-07T09:40:05.256Z,88.60
2018-12-07T09:41:10.448Z,88.70
2018-12-07T09:42:08.056Z,88.70
2018-12-07T09:43:07.716Z,88.70
2018-12-07T09:44:05.866Z,88.70
2018-12-07T09:45:08.632Z,88.70
2018-12-07T09:46:05.692Z,88.70
2018-12-07T09:47:08.352Z,88.80
2018-12-07T09:48:05.418Z,88.90
2018-12-07T09:49:05.595Z,88.70
2018-12-07T09:50:08.222Z,88.90
2018-12-07T09:51:07.693Z,88.90
2018-12-07T09:52:05.718Z,88.90
2018-12-07T09:53:06.026Z,88.90
2018-12-07T09:54:05.259Z,89.10
2018-12-07T09:55:05.425Z,89.00
2018-12-07T09:56:10.520Z,89.10
2018-12-07T09:57:10.539Z,89.20
2018-12-07T09:58:10.529Z,89.00
2018-12-07T09:59:08.098Z,88.90
2018-12-07T10:00:07.636Z,89.10
2018-12-07T10:01:08.076Z,89.10
2018-12-07T10:02:08.544Z,89.10
2018-12-07T10:03:08.002Z,89.00
2018-12-07T10:04:08.536Z,89.10
2018-12-07T10:05:13.143Z,89.30
2018-12-07T10:06:05.266Z,89.20
2018-12-07T10:07:05.425Z,89.10
2018-12-07T10:08:10.614Z,89.30
2018-12-07T10:09:05.714Z,89.30
2018-12-07T10:10:05.320Z,89.20
2018-12-07T10:11:07.945Z,88.70
2018-12-07T10:12:06.049Z,88.60
2018-12-07T10:13:08.501Z,88.70
2018-12-07T10:14:05.717Z,88.60
2018-12-07T10:15:08.493Z,88.40
2018-12-07T10:16:07.972Z,88.80
2018-12-07T10:17:08.469Z,88.70
2018-12-07T10:18:05.606Z,88.70
2018-12-07T10:19:08.346Z,88.50
2018-12-07T10:20:05.343Z,88.50
2018-12-07T10:21:08.115Z,88.50
2018-12-07T10:22:05.090Z,88.50
2018-12-07T10:23:05.152Z,88.40
2018-12-07T10:24:05.261Z,88.30
2018-12-07T10:25:08.002Z,88.40
2018-12-07T10:26:08.459Z,88.00
2018-12-07T10:27:07.963Z,88.10
2018-12-07T10:28:05.971Z,88.10
2018-12-07T10:29:05.489Z,88.10
2018-12-07T10:30:08.219Z,88.40
2018-12-07T10:31:07.834Z,88.20
2018-12-07T10:32:05.748Z,88.10
2018-12-07T10:33:08.364Z,88.00
2018-12-07T10:34:07.934Z,87.90
2018-12-07T10:35:05.976Z,87.90
2018-12-07T10:36:05.047Z,88.10
2018-12-07T10:37:05.162Z,88.10
2018-12-07T10:38:07.850Z,88.70
2018-12-07T10:39:05.799Z,88.70
2018-12-07T10:40:06.059Z,88.70
2018-12-07T10:41:07.641Z,88.70
2018-12-07T10:42:05.605Z,88.70
2018-12-07T10:43:05.890Z,88.10
2018-12-07T10:44:07.474Z,88.10
2018-12-07T10:45:05.464Z,88.10
2018-12-07T10:46:08.057Z,87.90
2018-12-07T10:47:04.979Z,88.00
2018-12-07T10:48:05.116Z,87.90
2018-12-07T10:49:05.322Z,87.90
2018-12-07T10:50:05.590Z,88.00
2018-12-07T10:51:08.553Z,87.90
2018-12-07T10:52:08.195Z,87.80
2018-12-07T10:53:05.133Z,87.70
2018-12-07T10:54:05.205Z,87.60
2018-12-07T10:55:05.408Z,87.80
2018-12-07T10:56:08.058Z,87.80
2018-12-07T10:57:05.065Z,87.70
2018-12-07T10:58:05.160Z,87.70
2018-12-07T10:59:07.853Z,87.60
2018-12-07T11:00:08.437Z,87.50
2018-12-07T11:01:05.445Z,87.40
2018-12-07T11:02:08.254Z,88.00
2018-12-07T11:03:07.819Z,87.60
2018-12-07T11:04:08.455Z,87.50
2018-12-07T11:05:05.403Z,87.50
2018-12-07T11:06:07.970Z,87.40
2018-12-07T11:07:08.384Z,87.40
2018-12-07T11:08:07.843Z,87.30
2018-12-07T11:09:05.902Z,87.40
2018-12-07T11:10:05.205Z,87.30
2018-12-07T11:11:05.452Z,87.20
2018-12-07T11:12:08.049Z,87.20
2018-12-07T11:13:07.563Z,87.20
2018-12-07T11:14:05.588Z,87.20
2018-12-07T11:15:08.403Z,87.00
2018-12-07T11:16:05.466Z,87.00
2018-12-07T11:17:05.613Z,86.70
2018-12-07T11:18:08.229Z,86.60
2018-12-07T11:19:05.176Z,86.70
2018-12-07T11:20:05.353Z,86.60
2018-12-07T11:21:05.478Z,86.50
2018-12-07T11:22:05.747Z,86.50
2018-12-07T11:23:05.922Z,86.40
2018-12-07T11:24:05.012Z,86.40
2018-12-07T11:25:07.714Z,86.40
2018-12-07T11:26:05.715Z,86.40
2018-12-07T11:27:05.980Z,86.40
2018-12-07T11:28:07.581Z,86.20
2018-12-07T11:29:07.998Z,86.20
2018-12-07T11:30:10.105Z,86.30
2018-12-07T11:31:05.050Z,86.30
2018-12-07T11:32:05.130Z,86.20
2018-12-07T11:33:05.265Z,86.20
2018-12-07T11:34:07.860Z,86.00
2018-12-07T11:35:08.353Z,86.00
2018-12-07T11:36:08.554Z,86.00
2018-12-07T11:37:05.736Z,85.90
2018-12-07T11:38:05.860Z,86.00
2018-12-07T11:39:05.078Z,86.00
2018-12-07T11:40:05.274Z,86.00
2018-12-07T11:41:08.084Z,86.00
2018-12-07T11:42:05.089Z,85.90
2018-12-07T11:43:07.854Z,86.10
2018-12-07T11:44:05.938Z,86.10
2018-12-07T11:45:05.200Z,86.00
2018-12-07T11:46:07.874Z,86.20
2018-12-07T11:47:08.397Z,86.10
2018-12-07T11:48:05.402Z,86.10
2018-12-07T11:49:05.621Z,86.70
2018-12-07T11:50:08.259Z,85.90
2018-12-07T11:51:05.383Z,85.90
2018-12-07T11:52:05.589Z,85.90
2018-12-07T11:53:05.680Z,85.90
2018-12-07T11:54:08.286Z,85.80
2018-12-07T11:55:05.222Z,85.70
2018-12-07T11:56:05.259Z,85.70
2018-12-07T11:57:05.329Z,85.90
2018-12-07T11:58:05.581Z,85.80
2018-12-07T11:59:05.763Z,85.50
2018-12-07T12:00:05.831Z,85.70
2018-12-07T12:01:07.682Z,85.50
2018-12-07T12:02:08.391Z,85.50
2018-12-07T12:03:07.975Z,85.50
2018-12-07T12:04:05.017Z,85.50
2018-12-07T12:05:05.486Z,85.90
2018-12-07T12:06:08.332Z,86.00
2018-12-07T12:07:05.331Z,85.90
2018-12-07T12:08:05.448Z,85.40
2018-12-07T12:09:05.577Z,85.40
2018-12-07T12:10:05.682Z,85.40
2018-12-07T12:11:05.857Z,85.40
2018-12-07T12:12:11.000Z,85.30
2018-12-07T12:13:06.177Z,85.20
2018-12-07T12:14:05.282Z,85.20
2018-12-07T12:15:07.833Z,85.10
2018-12-07T12:16:06.595Z,85.20
2018-12-07T12:17:10.741Z,85.10
2018-12-07T12:18:08.335Z,85.10
2018-12-07T12:19:10.493Z,84.90
2018-12-07T12:20:05.514Z,84.80
2018-12-07T12:21:05.656Z,84.80
2018-12-07T12:22:05.769Z,84.80
2018-12-07T12:23:06.028Z,84.80
2018-12-07T12:24:05.230Z,85.30
2018-12-07T12:25:05.361Z,84.50
2018-12-07T12:26:05.560Z,84.70
2018-12-07T12:27:05.657Z,84.60
2018-12-07T12:28:10.110Z,84.60
2018-12-07T12:29:05.074Z,84.60
2018-12-07T12:30:13.056Z,84.60
2018-12-07T12:31:07.727Z,84.70
2018-12-07T12:32:08.242Z,84.50
2018-12-07T12:33:05.382Z,84.50
2018-12-07T12:34:05.530Z,84.40
2018-12-07T12:35:05.749Z,84.30
2018-12-07T12:36:08.399Z,84.20
2018-12-07T12:37:05.443Z,84.20
2018-12-07T12:38:05.591Z,84.30
2018-12-07T12:39:07.784Z,84.70
2018-12-07T12:40:05.856Z,84.80
2018-12-07T12:41:07.658Z,84.60
2018-12-07T12:42:10.658Z,84.00
2018-12-07T12:43:08.193Z,84.00
2018-12-07T12:44:05.256Z,84.00
2018-12-07T12:45:05.568Z,83.80
2018-12-07T12:46:05.673Z,83.80
2018-12-07T12:47:05.811Z,83.70
2018-12-07T12:48:10.166Z,83.70
2018-12-07T12:49:05.079Z,83.80
2018-12-07T12:50:05.158Z,83.80
2018-12-07T12:51:07.713Z,83.90
2018-12-07T12:52:05.662Z,83.90
2018-12-07T12:53:08.227Z,83.80
2018-12-07T12:54:10.234Z,83.70
2018-12-07T12:55:07.691Z,83.50
2018-12-07T12:56:05.804Z,83.60